CCA0102 ZYTX-ZLXY
Flight info
| Callsign | CCA0102 |
|---|---|
| Flight time | N/A |
| Altitude | 38100 |
| Route | OMD71D OMDUS A575 CHG W31 KAKAT W28 VERMI DCT TMR G218 HET W84 IBARO W47 LOVRA LOV2W |
| Aircraft | A20N/M-SDE2E3FGHIRWXY/LB1 |
Departure
| Time | 2026-04-25 10:08 |
|---|---|
| Airport | Shenyang Taoxian International Airport (ZYTX) |
Arrival
| Time | N/A |
|---|---|
| Airport | Xi'an Xianyang International Airport (ZLXY) |
| Time | Latitude | Longitude | Altitude | Speed | Heading |
|---|---|---|---|---|---|
| 2026-04-25 09:52 | 41.64289 | 123.49399 | 200 ft | 0 kts | 135° |
| 2026-04-25 09:56 | 41.64297 | 123.49390 | 214 ft | 2 kts | 131° |
| 2026-04-25 09:56 | 41.64304 | 123.49375 | 214 ft | 2 kts | 93° |
| 2026-04-25 09:57 | 41.64303 | 123.49361 | 203 ft | 0 kts | 64° |
| 2026-04-25 10:03 | 41.64304 | 123.49363 | 200 ft | 1 kts | 64° |
| 2026-04-25 10:03 | 41.64311 | 123.49378 | 208 ft | 3 kts | 58° |
| 2026-04-25 10:04 | 41.64325 | 123.49381 | 205 ft | 2 kts | 349° |
| 2026-04-25 10:04 | 41.64350 | 123.49370 | 204 ft | 5 kts | 341° |
| 2026-04-25 10:04 | 41.64391 | 123.49353 | 210 ft | 7 kts | 348° |
| 2026-04-25 10:04 | 41.64441 | 123.49375 | 208 ft | 9 kts | 39° |
| 2026-04-25 10:05 | 41.64489 | 123.49439 | 215 ft | 11 kts | 47° |
| 2026-04-25 10:05 | 41.64541 | 123.49524 | 203 ft | 13 kts | 53° |
| 2026-04-25 10:05 | 41.64602 | 123.49622 | 209 ft | 15 kts | 48° |
| 2026-04-25 10:05 | 41.64675 | 123.49727 | 217 ft | 16 kts | 47° |
| 2026-04-25 10:06 | 41.64755 | 123.49844 | 213 ft | 18 kts | 48° |
| 2026-04-25 10:06 | 41.64855 | 123.49879 | 212 ft | 17 kts | 320° |
| 2026-04-25 10:06 | 41.64922 | 123.49765 | 211 ft | 2 kts | 269° |
| 2026-04-25 10:06 | 41.64921 | 123.49754 | 206 ft | 3 kts | 265° |
| 2026-04-25 10:07 | 41.64911 | 123.49718 | 211 ft | 6 kts | 238° |
| 2026-04-25 10:07 | 41.64896 | 123.49693 | 206 ft | 0 kts | 230° |
| 2026-04-25 10:07 | 41.64814 | 123.49570 | 213 ft | 50 kts | 227° |
| 2026-04-25 10:08 | 41.64435 | 123.48998 | 205 ft | 112 kts | 229° |
| 2026-04-25 10:08 | 41.63810 | 123.48052 | 212 ft | 157 kts | 229° |
| 2026-04-25 10:08 | 41.63047 | 123.46919 | 613 ft | 169 kts | 229° |
| 2026-04-25 10:08 | 41.62224 | 123.45750 | 1155 ft | 175 kts | 226° |
| 2026-04-25 10:09 | 41.61420 | 123.44519 | 1866 ft | 173 kts | 233° |
| 2026-04-25 10:09 | 41.60804 | 123.43181 | 2820 ft | 171 kts | 240° |
| 2026-04-25 10:09 | 41.60145 | 123.41752 | 3243 ft | 191 kts | 229° |
| 2026-04-25 10:09 | 41.59209 | 123.40409 | 3685 ft | 211 kts | 225° |
| 2026-04-25 10:10 | 41.58094 | 123.38997 | 4252 ft | 226 kts | 225° |
| 2026-04-25 10:10 | 41.57162 | 123.37305 | 5056 ft | 230 kts | 246° |
| 2026-04-25 10:10 | 41.56851 | 123.35182 | 5838 ft | 240 kts | 269° |
| 2026-04-25 10:10 | 41.57087 | 123.32936 | 6609 ft | 248 kts | 275° |
| 2026-04-25 10:11 | 41.57377 | 123.30649 | 7404 ft | 251 kts | 276° |
| 2026-04-25 10:11 | 41.57669 | 123.28330 | 8186 ft | 256 kts | 276° |
| 2026-04-25 10:11 | 41.57961 | 123.25963 | 8984 ft | 260 kts | 276° |
| 2026-04-25 10:11 | 41.58253 | 123.23561 | 9787 ft | 264 kts | 276° |
| 2026-04-25 10:12 | 41.58542 | 123.21151 | 10394 ft | 273 kts | 277° |
| 2026-04-25 10:12 | 41.58851 | 123.18541 | 10626 ft | 296 kts | 277° |
| 2026-04-25 10:12 | 41.59529 | 123.12839 | 11582 ft | 317 kts | 277° |
| 2026-04-25 10:13 | 41.59878 | 123.09917 | 12326 ft | 320 kts | 277° |
| 2026-04-25 10:13 | 41.60230 | 123.06965 | 13057 ft | 323 kts | 277° |
| 2026-04-25 10:13 | 41.60582 | 123.03990 | 13744 ft | 326 kts | 277° |
| 2026-04-25 10:13 | 41.60938 | 123.00982 | 14388 ft | 329 kts | 277° |
| 2026-04-25 10:14 | 41.61295 | 122.97946 | 15013 ft | 332 kts | 277° |
| 2026-04-25 10:14 | 41.61650 | 122.94927 | 15640 ft | 335 kts | 277° |
| 2026-04-25 10:14 | 41.62012 | 122.91841 | 16283 ft | 337 kts | 277° |
| 2026-04-25 10:14 | 41.62374 | 122.88740 | 16898 ft | 340 kts | 277° |
| 2026-04-25 10:15 | 41.62739 | 122.85608 | 17525 ft | 342 kts | 277° |
| 2026-04-25 10:15 | 41.63106 | 122.82455 | 18140 ft | 345 kts | 277° |
| 2026-04-25 10:15 | 41.63475 | 122.79275 | 18662 ft | 347 kts | 277° |
| 2026-04-25 10:15 | 41.63846 | 122.76075 | 19181 ft | 350 kts | 278° |
| 2026-04-25 10:16 | 41.64213 | 122.72893 | 19682 ft | 353 kts | 278° |
| 2026-04-25 10:16 | 41.64588 | 122.69640 | 20190 ft | 356 kts | 278° |
| 2026-04-25 10:16 | 41.64965 | 122.66361 | 20691 ft | 358 kts | 278° |
| 2026-04-25 10:16 | 41.65344 | 122.63051 | 21179 ft | 361 kts | 278° |
| 2026-04-25 10:17 | 41.65725 | 122.59718 | 21669 ft | 364 kts | 278° |
| 2026-04-25 10:17 | 41.66108 | 122.56358 | 22153 ft | 367 kts | 278° |
| 2026-04-25 10:17 | 41.66493 | 122.52967 | 22627 ft | 370 kts | 278° |
| 2026-04-25 10:17 | 41.66881 | 122.49550 | 23111 ft | 373 kts | 278° |
| 2026-04-25 10:18 | 41.67264 | 122.46161 | 23538 ft | 375 kts | 278° |
| 2026-04-25 10:18 | 41.67655 | 122.42693 | 23944 ft | 377 kts | 278° |
| 2026-04-25 10:18 | 41.68046 | 122.39215 | 24347 ft | 379 kts | 278° |
| 2026-04-25 10:18 | 41.68438 | 122.35718 | 24749 ft | 381 kts | 278° |
| 2026-04-25 10:19 | 41.68831 | 122.32202 | 25131 ft | 383 kts | 278° |
| 2026-04-25 10:19 | 41.69226 | 122.28664 | 25516 ft | 385 kts | 278° |
| 2026-04-25 10:19 | 41.69620 | 122.25111 | 25871 ft | 387 kts | 278° |
| 2026-04-25 10:19 | 41.70017 | 122.21533 | 26243 ft | 389 kts | 278° |
| 2026-04-25 10:20 | 41.70405 | 122.17991 | 26604 ft | 391 kts | 277° |
| 2026-04-25 10:20 | 41.70617 | 122.14360 | 26934 ft | 393 kts | 271° |
| 2026-04-25 10:20 | 41.70537 | 122.10689 | 27277 ft | 396 kts | 266° |
| 2026-04-25 10:20 | 41.70166 | 122.07030 | 27593 ft | 398 kts | 261° |
| 2026-04-25 10:21 | 41.69642 | 122.03381 | 27915 ft | 400 kts | 261° |
| 2026-04-25 10:21 | 41.69130 | 121.99714 | 28215 ft | 402 kts | 261° |
| 2026-04-25 10:21 | 41.68620 | 121.96028 | 28505 ft | 404 kts | 261° |
| 2026-04-25 10:21 | 41.68105 | 121.92323 | 28796 ft | 406 kts | 261° |
| 2026-04-25 10:22 | 41.67587 | 121.88607 | 29066 ft | 408 kts | 261° |
| 2026-04-25 10:22 | 41.67062 | 121.84867 | 29336 ft | 409 kts | 261° |
| 2026-04-25 10:22 | 41.66541 | 121.81167 | 29603 ft | 411 kts | 261° |
| 2026-04-25 10:22 | 41.66010 | 121.77405 | 29864 ft | 413 kts | 261° |
| 2026-04-25 10:23 | 41.65475 | 121.73623 | 30114 ft | 414 kts | 261° |
| 2026-04-25 10:23 | 41.64938 | 121.69841 | 30388 ft | 415 kts | 261° |
| 2026-04-25 10:23 | 41.64399 | 121.66049 | 30623 ft | 416 kts | 261° |
| 2026-04-25 10:23 | 41.63855 | 121.62243 | 30886 ft | 417 kts | 261° |
| 2026-04-25 10:24 | 41.63312 | 121.58443 | 31231 ft | 416 kts | 261° |
| 2026-04-25 10:24 | 41.62769 | 121.54661 | 31591 ft | 414 kts | 261° |
| 2026-04-25 10:24 | 41.62228 | 121.50889 | 31947 ft | 412 kts | 261° |
| 2026-04-25 10:25 | 41.60023 | 121.35637 | 33327 ft | 405 kts | 261° |
| 2026-04-25 10:25 | 41.59487 | 121.31952 | 33647 ft | 404 kts | 261° |
| 2026-04-25 10:26 | 41.58953 | 121.28280 | 33930 ft | 402 kts | 261° |
| 2026-04-25 10:26 | 41.58418 | 121.24614 | 34144 ft | 402 kts | 261° |
| 2026-04-25 10:26 | 41.57882 | 121.20952 | 34316 ft | 403 kts | 261° |
| 2026-04-25 10:26 | 41.57452 | 121.17311 | 34504 ft | 402 kts | 265° |
| 2026-04-25 10:27 | 41.57265 | 121.13584 | 34683 ft | 402 kts | 268° |
| 2026-04-25 10:27 | 41.57100 | 121.09861 | 34870 ft | 402 kts | 268° |
| 2026-04-25 10:27 | 41.56928 | 121.06132 | 35051 ft | 402 kts | 267° |
| 2026-04-25 10:27 | 41.56753 | 121.02396 | 35235 ft | 403 kts | 267° |
| 2026-04-25 10:28 | 41.56575 | 120.98671 | 35418 ft | 403 kts | 267° |
| 2026-04-25 10:28 | 41.56395 | 120.94932 | 35583 ft | 403 kts | 267° |
| 2026-04-25 10:28 | 41.56214 | 120.91197 | 35749 ft | 403 kts | 268° |
| 2026-04-25 10:28 | 41.56034 | 120.87513 | 35906 ft | 403 kts | 267° |
| 2026-04-25 10:29 | 41.55850 | 120.83776 | 36067 ft | 403 kts | 268° |
| 2026-04-25 10:29 | 41.55665 | 120.80033 | 36212 ft | 404 kts | 268° |
| 2026-04-25 10:29 | 41.55479 | 120.76294 | 36374 ft | 404 kts | 268° |
| 2026-04-25 10:29 | 41.55292 | 120.72562 | 36518 ft | 404 kts | 268° |
| 2026-04-25 10:30 | 41.55104 | 120.68823 | 36685 ft | 404 kts | 268° |
| 2026-04-25 10:30 | 41.54979 | 120.66343 | 36786 ft | 403 kts | 268° |
| 2026-04-25 10:30 | 41.54724 | 120.61346 | 36978 ft | 403 kts | 268° |
| 2026-04-25 10:30 | 41.54532 | 120.57614 | 37111 ft | 403 kts | 268° |
| 2026-04-25 10:31 | 41.54342 | 120.53932 | 37243 ft | 403 kts | 268° |
| 2026-04-25 10:31 | 41.54181 | 120.46467 | 37465 ft | 402 kts | 277° |
| 2026-04-25 10:31 | 41.54638 | 120.42792 | 37581 ft | 401 kts | 284° |
| 2026-04-25 10:32 | 41.55503 | 120.39255 | 37685 ft | 401 kts | 292° |
| 2026-04-25 10:32 | 41.56744 | 120.35922 | 37800 ft | 402 kts | 298° |
| 2026-04-25 10:32 | 41.58095 | 120.32653 | 37845 ft | 402 kts | 297° |
| 2026-04-25 10:33 | 41.60746 | 120.26152 | 37845 ft | 401 kts | 297° |
| 2026-04-25 10:33 | 41.63403 | 120.19608 | 37849 ft | 401 kts | 297° |
| 2026-04-25 10:34 | 41.66059 | 120.13057 | 37847 ft | 401 kts | 297° |
| 2026-04-25 10:34 | 41.68711 | 120.06504 | 37852 ft | 400 kts | 297° |
| 2026-04-25 10:35 | 41.71358 | 119.99946 | 37849 ft | 401 kts | 297° |
| 2026-04-25 10:35 | 41.73984 | 119.93429 | 37851 ft | 401 kts | 297° |
| 2026-04-25 10:36 | 41.76627 | 119.86854 | 37853 ft | 401 kts | 297° |
| 2026-04-25 10:36 | 41.79265 | 119.80276 | 37847 ft | 401 kts | 297° |
| 2026-04-25 10:37 | 41.81900 | 119.73691 | 37854 ft | 401 kts | 297° |
| 2026-04-25 10:37 | 41.84515 | 119.67142 | 37851 ft | 401 kts | 297° |
| 2026-04-25 10:38 | 41.87145 | 119.60540 | 37848 ft | 401 kts | 296° |
| 2026-04-25 10:38 | 41.89770 | 119.53935 | 37846 ft | 401 kts | 296° |
| 2026-04-25 10:39 | 41.92393 | 119.47321 | 37843 ft | 401 kts | 296° |
| 2026-04-25 10:39 | 41.94995 | 119.40756 | 37842 ft | 401 kts | 297° |
| 2026-04-25 10:40 | 41.97658 | 119.34168 | 37833 ft | 401 kts | 297° |
| 2026-04-25 10:40 | 42.00321 | 119.27586 | 37833 ft | 401 kts | 297° |
| 2026-04-25 10:41 | 42.02973 | 119.21001 | 37834 ft | 400 kts | 297° |
| 2026-04-25 10:41 | 42.05601 | 119.14455 | 37825 ft | 400 kts | 297° |
| 2026-04-25 10:42 | 42.08238 | 119.07869 | 37823 ft | 400 kts | 297° |
| 2026-04-25 10:42 | 42.10872 | 119.01277 | 37819 ft | 400 kts | 297° |
| 2026-04-25 10:43 | 42.13504 | 118.94677 | 37822 ft | 400 kts | 297° |
| 2026-04-25 10:43 | 42.16113 | 118.88112 | 37821 ft | 400 kts | 296° |
| 2026-04-25 10:44 | 42.18069 | 118.81130 | 37816 ft | 399 kts | 283° |
| 2026-04-25 10:44 | 42.18819 | 118.73725 | 37814 ft | 400 kts | 272° |
| 2026-04-25 10:45 | 42.18756 | 118.66209 | 37817 ft | 401 kts | 271° |
| 2026-04-25 10:45 | 42.18700 | 118.58747 | 37818 ft | 401 kts | 271° |
| 2026-04-25 10:46 | 42.18630 | 118.51212 | 37824 ft | 402 kts | 271° |
| 2026-04-25 10:46 | 42.18550 | 118.43666 | 37832 ft | 403 kts | 270° |
| 2026-04-25 10:47 | 42.18464 | 118.36148 | 37827 ft | 404 kts | 270° |
| 2026-04-25 10:47 | 42.18661 | 118.28584 | 37833 ft | 404 kts | 279° |
| 2026-04-25 10:48 | 42.19980 | 118.21226 | 37835 ft | 405 kts | 290° |
| 2026-04-25 10:48 | 42.22277 | 118.14283 | 37846 ft | 407 kts | 295° |
| 2026-04-25 10:49 | 42.24699 | 118.07373 | 37848 ft | 408 kts | 295° |
| 2026-04-25 10:49 | 42.27104 | 118.00474 | 37848 ft | 409 kts | 295° |
| 2026-04-25 10:50 | 42.29524 | 117.93521 | 37842 ft | 410 kts | 295° |
| 2026-04-25 10:50 | 42.31950 | 117.86537 | 37846 ft | 411 kts | 295° |
| 2026-04-25 10:51 | 42.34377 | 117.79531 | 37845 ft | 412 kts | 295° |
| 2026-04-25 10:51 | 42.36359 | 117.72323 | 37850 ft | 413 kts | 284° |
| 2026-04-25 10:52 | 42.37089 | 117.64624 | 37844 ft | 413 kts | 272° |
| 2026-04-25 10:52 | 42.36784 | 117.56869 | 37835 ft | 413 kts | 269° |
| 2026-04-25 10:53 | 42.36427 | 117.49116 | 37840 ft | 413 kts | 269° |
| 2026-04-25 10:53 | 42.36065 | 117.41442 | 37837 ft | 411 kts | 269° |
| 2026-04-25 10:54 | 42.35690 | 117.33746 | 37834 ft | 409 kts | 269° |
| 2026-04-25 10:54 | 42.35310 | 117.26067 | 37827 ft | 409 kts | 269° |
| 2026-04-25 10:55 | 42.34926 | 117.18404 | 37815 ft | 408 kts | 269° |
| 2026-04-25 10:55 | 42.34541 | 117.10806 | 37812 ft | 408 kts | 269° |
| 2026-04-25 10:56 | 42.34148 | 117.03160 | 37805 ft | 408 kts | 269° |
| 2026-04-25 10:56 | 42.33749 | 116.95521 | 37803 ft | 407 kts | 269° |
| 2026-04-25 10:57 | 42.33346 | 116.87883 | 37798 ft | 408 kts | 269° |
| 2026-04-25 10:57 | 42.32940 | 116.80285 | 37799 ft | 408 kts | 269° |
| 2026-04-25 10:58 | 42.32526 | 116.72641 | 37796 ft | 408 kts | 269° |
| 2026-04-25 10:58 | 42.32106 | 116.64970 | 37795 ft | 409 kts | 269° |
| 2026-04-25 10:59 | 42.31680 | 116.57290 | 37790 ft | 410 kts | 269° |
| 2026-04-25 10:59 | 42.31251 | 116.49646 | 37795 ft | 411 kts | 269° |
| 2026-04-25 11:00 | 42.30812 | 116.41930 | 37804 ft | 413 kts | 269° |
| 2026-04-25 11:00 | 42.30367 | 116.34183 | 37811 ft | 414 kts | 269° |
| 2026-04-25 11:01 | 42.29915 | 116.26414 | 37817 ft | 416 kts | 269° |
| 2026-04-25 11:01 | 42.29459 | 116.18670 | 37824 ft | 417 kts | 269° |
| 2026-04-25 11:02 | 42.28993 | 116.10850 | 37823 ft | 417 kts | 269° |
| 2026-04-25 11:02 | 42.28523 | 116.03049 | 37827 ft | 417 kts | 269° |
| 2026-04-25 11:03 | 42.28048 | 115.95245 | 37824 ft | 417 kts | 269° |
| 2026-04-25 11:03 | 42.27570 | 115.87490 | 37820 ft | 417 kts | 268° |
| 2026-04-25 11:04 | 42.27083 | 115.79674 | 37830 ft | 417 kts | 268° |
| 2026-04-25 11:04 | 42.26591 | 115.71872 | 37820 ft | 417 kts | 268° |
| 2026-04-25 11:05 | 42.26096 | 115.64076 | 37822 ft | 416 kts | 268° |
| 2026-04-25 11:05 | 42.25597 | 115.56341 | 37817 ft | 416 kts | 268° |
| 2026-04-25 11:06 | 42.25090 | 115.48561 | 37817 ft | 416 kts | 268° |
| 2026-04-25 11:06 | 42.24579 | 115.40780 | 37814 ft | 416 kts | 268° |
| 2026-04-25 11:07 | 42.24062 | 115.33000 | 37822 ft | 416 kts | 268° |
| 2026-04-25 11:07 | 42.23543 | 115.25273 | 37817 ft | 417 kts | 268° |
| 2026-04-25 11:08 | 42.23009 | 115.17479 | 37823 ft | 417 kts | 268° |
| 2026-04-25 11:08 | 42.22473 | 115.09685 | 37825 ft | 418 kts | 268° |
| 2026-04-25 11:09 | 42.21930 | 115.01881 | 37826 ft | 418 kts | 268° |
| 2026-04-25 11:09 | 42.21384 | 114.94116 | 37833 ft | 419 kts | 268° |
| 2026-04-25 11:10 | 42.20828 | 114.86289 | 37839 ft | 419 kts | 268° |
| 2026-04-25 11:10 | 42.20267 | 114.78452 | 37839 ft | 420 kts | 268° |
| 2026-04-25 11:11 | 42.19703 | 114.70665 | 37849 ft | 421 kts | 268° |
| 2026-04-25 11:11 | 42.19130 | 114.62811 | 37849 ft | 421 kts | 268° |
| 2026-04-25 11:12 | 42.18549 | 114.54950 | 37856 ft | 421 kts | 268° |
| 2026-04-25 11:12 | 42.17964 | 114.47088 | 37873 ft | 422 kts | 268° |
| 2026-04-25 11:13 | 42.17377 | 114.39285 | 37853 ft | 420 kts | 268° |
| 2026-04-25 11:13 | 42.16784 | 114.31462 | 37867 ft | 420 kts | 268° |
| 2026-04-25 11:14 | 42.16185 | 114.23632 | 37856 ft | 420 kts | 268° |
| 2026-04-25 11:14 | 42.15580 | 114.15809 | 37864 ft | 420 kts | 268° |
| 2026-04-25 11:15 | 42.14974 | 114.08034 | 37874 ft | 419 kts | 268° |
| 2026-04-25 11:15 | 42.14360 | 114.00224 | 37863 ft | 419 kts | 268° |
| 2026-04-25 11:16 | 42.13431 | 113.88540 | 37862 ft | 418 kts | 268° |
| 2026-04-25 11:16 | 42.12811 | 113.80817 | 37869 ft | 417 kts | 268° |
| 2026-04-25 11:17 | 42.12183 | 113.73062 | 37864 ft | 417 kts | 268° |
| 2026-04-25 11:17 | 42.11548 | 113.65298 | 37861 ft | 417 kts | 268° |
| 2026-04-25 11:18 | 42.10896 | 113.57548 | 37876 ft | 418 kts | 265° |
| 2026-04-25 11:18 | 42.09129 | 113.50068 | 37875 ft | 429 kts | 248° |
| 2026-04-25 11:19 | 42.05627 | 113.43453 | 37879 ft | 443 kts | 230° |
| 2026-04-25 11:19 | 42.01214 | 113.37642 | 37885 ft | 444 kts | 230° |
| 2026-04-25 11:20 | 41.96817 | 113.31810 | 37891 ft | 445 kts | 230° |
| 2026-04-25 11:20 | 41.92401 | 113.25970 | 37901 ft | 446 kts | 230° |
| 2026-04-25 11:21 | 41.88003 | 113.20172 | 37913 ft | 447 kts | 230° |
| 2026-04-25 11:21 | 41.83525 | 113.14374 | 37925 ft | 450 kts | 227° |
| 2026-04-25 11:22 | 41.79611 | 113.09804 | 37927 ft | 448 kts | 227° |
| 2026-04-25 11:22 | 41.74102 | 113.03419 | 37912 ft | 449 kts | 226° |
| 2026-04-25 11:23 | 41.69347 | 112.98083 | 37921 ft | 449 kts | 226° |
| 2026-04-25 11:23 | 41.64566 | 112.92715 | 37927 ft | 448 kts | 226° |
| 2026-04-25 11:24 | 41.59793 | 112.87351 | 37931 ft | 448 kts | 226° |
| 2026-04-25 11:24 | 41.55024 | 112.81998 | 37930 ft | 448 kts | 226° |
| 2026-04-25 11:25 | 41.50291 | 112.76697 | 37932 ft | 447 kts | 226° |
| 2026-04-25 11:25 | 41.45528 | 112.71372 | 37936 ft | 446 kts | 226° |
| 2026-04-25 11:26 | 41.40836 | 112.65973 | 37940 ft | 445 kts | 227° |
| 2026-04-25 11:26 | 41.36174 | 112.60556 | 37950 ft | 445 kts | 227° |
| 2026-04-25 11:27 | 41.31532 | 112.55196 | 37953 ft | 444 kts | 227° |
| 2026-04-25 11:27 | 41.27644 | 112.50723 | 37953 ft | 444 kts | 227° |
| 2026-04-25 11:28 | 41.22176 | 112.44447 | 37966 ft | 444 kts | 227° |
| 2026-04-25 11:28 | 41.17529 | 112.39124 | 37973 ft | 444 kts | 227° |
| 2026-04-25 11:29 | 41.12841 | 112.33763 | 37982 ft | 445 kts | 227° |
| 2026-04-25 11:29 | 41.08149 | 112.28410 | 37974 ft | 444 kts | 227° |
| 2026-04-25 11:30 | 41.03443 | 112.23141 | 37977 ft | 443 kts | 226° |
| 2026-04-25 11:30 | 40.98666 | 112.18032 | 37968 ft | 444 kts | 226° |
| 2026-04-25 11:31 | 40.93868 | 112.12897 | 37961 ft | 443 kts | 226° |
| 2026-04-25 11:31 | 40.89077 | 112.07753 | 37956 ft | 444 kts | 226° |
| 2026-04-25 11:32 | 40.84284 | 112.02612 | 37964 ft | 444 kts | 226° |
| 2026-04-25 11:32 | 40.79525 | 111.97517 | 37966 ft | 443 kts | 226° |
| 2026-04-25 11:33 | 40.74540 | 111.92675 | 37965 ft | 452 kts | 216° |
| 2026-04-25 11:33 | 40.68540 | 111.89774 | 37958 ft | 469 kts | 197° |
| 2026-04-25 11:34 | 40.61972 | 111.88980 | 37956 ft | 475 kts | 190° |
| 2026-04-25 11:34 | 40.55414 | 111.88434 | 37954 ft | 476 kts | 189° |
| 2026-04-25 11:35 | 40.48806 | 111.87902 | 37957 ft | 476 kts | 189° |
| 2026-04-25 11:35 | 40.42197 | 111.87359 | 37957 ft | 476 kts | 190° |
| 2026-04-25 11:36 | 40.35589 | 111.86815 | 37956 ft | 476 kts | 189° |
| 2026-04-25 11:36 | 40.29012 | 111.86280 | 37963 ft | 476 kts | 189° |
| 2026-04-25 11:37 | 40.22395 | 111.85742 | 37968 ft | 477 kts | 189° |
| 2026-04-25 11:37 | 40.15760 | 111.85203 | 37976 ft | 478 kts | 189° |
| 2026-04-25 11:38 | 40.09125 | 111.84666 | 37987 ft | 478 kts | 189° |
| 2026-04-25 11:38 | 40.02571 | 111.83905 | 37994 ft | 470 kts | 199° |
| 2026-04-25 11:39 | 39.96608 | 111.80946 | 38001 ft | 450 kts | 219° |
| 2026-04-25 11:39 | 39.94082 | 111.78645 | 37942 ft | 435 kts | 230° |
| 2026-04-25 11:39 | 39.91779 | 111.76127 | 37982 ft | 430 kts | 230° |
| 2026-04-25 11:40 | 39.87188 | 111.71128 | 37988 ft | 432 kts | 230° |
| 2026-04-25 11:40 | 39.82607 | 111.66169 | 37994 ft | 430 kts | 230° |
| 2026-04-25 11:41 | 39.77996 | 111.61192 | 37984 ft | 430 kts | 230° |
| 2026-04-25 11:41 | 39.73388 | 111.56225 | 37981 ft | 431 kts | 230° |
| 2026-04-25 11:42 | 39.68766 | 111.51253 | 37979 ft | 431 kts | 230° |
| 2026-04-25 11:42 | 39.64176 | 111.46324 | 37973 ft | 431 kts | 230° |
| 2026-04-25 11:43 | 39.59542 | 111.41356 | 37971 ft | 432 kts | 230° |
| 2026-04-25 11:43 | 39.54905 | 111.36393 | 37972 ft | 433 kts | 230° |
| 2026-04-25 11:44 | 39.50255 | 111.31426 | 37974 ft | 433 kts | 230° |
| 2026-04-25 11:44 | 39.45629 | 111.26493 | 37967 ft | 434 kts | 230° |
| 2026-04-25 11:45 | 39.40968 | 111.21533 | 37966 ft | 434 kts | 230° |
| 2026-04-25 11:45 | 39.36304 | 111.16577 | 37957 ft | 434 kts | 230° |
| 2026-04-25 11:46 | 39.31633 | 111.11622 | 37958 ft | 434 kts | 230° |
| 2026-04-25 11:46 | 39.26988 | 111.06704 | 37959 ft | 435 kts | 230° |
| 2026-04-25 11:47 | 39.22323 | 111.01750 | 37960 ft | 432 kts | 233° |
| 2026-04-25 11:47 | 39.20268 | 110.99001 | 37948 ft | 419 kts | 242° |
| 2026-04-25 11:47 | 39.18647 | 110.95960 | 37949 ft | 406 kts | 251° |
| 2026-04-25 11:48 | 39.16900 | 110.90504 | 37953 ft | 389 kts | 264° |
| 2026-04-25 11:48 | 39.16319 | 110.82651 | 37947 ft | 373 kts | 280° |
| 2026-04-25 11:49 | 39.16672 | 110.75981 | 37946 ft | 373 kts | 279° |
| 2026-04-25 11:49 | 39.16992 | 110.69296 | 37955 ft | 374 kts | 279° |
| 2026-04-25 11:50 | 39.17253 | 110.63738 | 37947 ft | 374 kts | 279° |
| 2026-04-25 11:50 | 39.17562 | 110.57046 | 37946 ft | 374 kts | 279° |
| 2026-04-25 11:51 | 39.17869 | 110.50347 | 37942 ft | 374 kts | 279° |
| 2026-04-25 11:51 | 39.18222 | 110.42579 | 37940 ft | 374 kts | 279° |
| 2026-04-25 11:52 | 39.18470 | 110.37017 | 37938 ft | 374 kts | 279° |
| 2026-04-25 11:52 | 39.18764 | 110.30341 | 37934 ft | 373 kts | 279° |
| 2026-04-25 11:53 | 39.19055 | 110.23660 | 37930 ft | 373 kts | 279° |
| 2026-04-25 11:53 | 39.19342 | 110.16989 | 37928 ft | 373 kts | 279° |
| 2026-04-25 11:54 | 39.19648 | 110.10363 | 37924 ft | 372 kts | 279° |
| 2026-04-25 11:55 | 39.20138 | 110.00364 | 37921 ft | 373 kts | 279° |
| 2026-04-25 11:55 | 39.20455 | 109.93684 | 37925 ft | 373 kts | 279° |
| 2026-04-25 11:56 | 39.20764 | 109.87041 | 37925 ft | 374 kts | 279° |
| 2026-04-25 11:56 | 39.20783 | 109.80327 | 37922 ft | 383 kts | 266° |
| 2026-04-25 11:56 | 39.19962 | 109.77004 | 37910 ft | 397 kts | 252° |
| 2026-04-25 11:57 | 39.18592 | 109.73872 | 37905 ft | 405 kts | 247° |
| 2026-04-25 11:57 | 39.15468 | 109.67792 | 37910 ft | 408 kts | 245° |
| 2026-04-25 11:58 | 39.12303 | 109.61779 | 37910 ft | 409 kts | 245° |
| 2026-04-25 11:58 | 39.09106 | 109.55715 | 37915 ft | 410 kts | 245° |
| 2026-04-25 11:59 | 39.05858 | 109.49671 | 37906 ft | 416 kts | 239° |
| 2026-04-25 11:59 | 39.03759 | 109.47017 | 37907 ft | 432 kts | 226° |
| 2026-04-25 11:59 | 39.01152 | 109.44973 | 37904 ft | 449 kts | 213° |
| 2026-04-25 12:00 | 38.95011 | 109.42855 | 37910 ft | 469 kts | 198° |
| 2026-04-25 12:00 | 38.91786 | 109.42191 | 37904 ft | 470 kts | 197° |
| 2026-04-25 12:01 | 38.82116 | 109.40026 | 37916 ft | 470 kts | 199° |
| 2026-04-25 12:01 | 38.75682 | 109.38445 | 37915 ft | 472 kts | 199° |
| 2026-04-25 12:02 | 38.66041 | 109.36062 | 37931 ft | 474 kts | 199° |
| 2026-04-25 12:02 | 38.59566 | 109.34469 | 37927 ft | 473 kts | 199° |
| 2026-04-25 12:03 | 38.53114 | 109.32886 | 37915 ft | 472 kts | 199° |
| 2026-04-25 12:03 | 38.46656 | 109.31301 | 37914 ft | 472 kts | 199° |
| 2026-04-25 12:04 | 38.40200 | 109.29732 | 37909 ft | 474 kts | 197° |
| 2026-04-25 12:04 | 38.33612 | 109.28998 | 37908 ft | 482 kts | 190° |
| 2026-04-25 12:05 | 38.26913 | 109.28605 | 37911 ft | 482 kts | 190° |
| 2026-04-25 12:05 | 38.20212 | 109.28195 | 37908 ft | 482 kts | 190° |
| 2026-04-25 12:06 | 38.13506 | 109.27780 | 37903 ft | 483 kts | 190° |
| 2026-04-25 12:06 | 38.06844 | 109.27368 | 37900 ft | 483 kts | 190° |
| 2026-04-25 12:07 | 38.00125 | 109.26963 | 37898 ft | 484 kts | 189° |
| 2026-04-25 12:07 | 37.93396 | 109.26565 | 37902 ft | 484 kts | 189° |
| 2026-04-25 12:08 | 37.86713 | 109.26170 | 37909 ft | 484 kts | 189° |
| 2026-04-25 12:08 | 37.79981 | 109.25771 | 37903 ft | 485 kts | 189° |
| 2026-04-25 12:09 | 37.73245 | 109.25374 | 37914 ft | 484 kts | 189° |
| 2026-04-25 12:09 | 37.66538 | 109.24980 | 37900 ft | 480 kts | 189° |
| 2026-04-25 12:10 | 37.59872 | 109.24588 | 37907 ft | 479 kts | 189° |
| 2026-04-25 12:10 | 37.53269 | 109.24200 | 37912 ft | 478 kts | 188° |
| 2026-04-25 12:11 | 37.46627 | 109.23811 | 37917 ft | 477 kts | 188° |
| 2026-04-25 12:11 | 37.40003 | 109.23423 | 37920 ft | 476 kts | 188° |
| 2026-04-25 12:12 | 37.33385 | 109.23037 | 37931 ft | 476 kts | 188° |
| 2026-04-25 12:12 | 37.26818 | 109.22654 | 37931 ft | 476 kts | 188° |
| 2026-04-25 12:13 | 37.20208 | 109.22270 | 37934 ft | 476 kts | 188° |
| 2026-04-25 12:13 | 37.13593 | 109.21886 | 37944 ft | 475 kts | 188° |
| 2026-04-25 12:14 | 37.06981 | 109.21503 | 37937 ft | 475 kts | 188° |
| 2026-04-25 12:14 | 37.00416 | 109.21123 | 37941 ft | 476 kts | 188° |
| 2026-04-25 12:15 | 36.93800 | 109.20741 | 37945 ft | 476 kts | 188° |
| 2026-04-25 12:15 | 36.87194 | 109.20361 | 37948 ft | 475 kts | 188° |
| 2026-04-25 12:16 | 36.80591 | 109.19982 | 37945 ft | 475 kts | 188° |
| 2026-04-25 12:16 | 36.74027 | 109.19604 | 37954 ft | 475 kts | 188° |
| 2026-04-25 12:17 | 36.67416 | 109.19224 | 37957 ft | 476 kts | 188° |
| 2026-04-25 12:17 | 36.60802 | 109.18844 | 37965 ft | 476 kts | 188° |
| 2026-04-25 12:18 | 36.54178 | 109.18466 | 37967 ft | 477 kts | 188° |
| 2026-04-25 12:18 | 36.47589 | 109.18090 | 37978 ft | 477 kts | 188° |
| 2026-04-25 12:19 | 36.37627 | 109.17523 | 37990 ft | 478 kts | 188° |
| 2026-04-25 12:20 | 36.30974 | 109.17082 | 37996 ft | 479 kts | 189° |
| 2026-04-25 12:20 | 36.24366 | 109.16628 | 37994 ft | 479 kts | 189° |
| 2026-04-25 12:21 | 36.17697 | 109.16178 | 38000 ft | 480 kts | 189° |
| 2026-04-25 12:21 | 36.11026 | 109.15732 | 37999 ft | 480 kts | 189° |
| 2026-04-25 12:22 | 36.04352 | 109.15288 | 37994 ft | 481 kts | 189° |
| 2026-04-25 12:22 | 35.97715 | 109.14846 | 37992 ft | 481 kts | 189° |
| 2026-04-25 12:23 | 35.91037 | 109.14402 | 37912 ft | 482 kts | 189° |
| 2026-04-25 12:23 | 35.87733 | 109.13918 | 37512 ft | 474 kts | 199° |
| 2026-04-25 12:23 | 35.84600 | 109.12754 | 36766 ft | 467 kts | 210° |
| 2026-04-25 12:23 | 35.81738 | 109.10957 | 35972 ft | 459 kts | 220° |
| 2026-04-25 12:24 | 35.79212 | 109.08634 | 35436 ft | 447 kts | 227° |
| 2026-04-25 12:24 | 35.77636 | 109.07032 | 35243 ft | 442 kts | 226° |